• Join FlightAware (Why Join?)
  • Login
  • US Flag 
04:59AM EDT


 

Airport Tracker/Info


-or-


 

Live Flight TrackerFlight Track Log ✈ PN6209 ✈ 04-Jul-2013 ✈ ZUJZ / JZH - ZHCC / CGO

Flight Track Log - Related Links

Times and Time Zones

All times are in EDT time to prevent confusion due to time zone crossing. See the PN6209 flight status page for this flight to view local times or setup timezone preferences in your user account.

Time Position Orientation Groundspeed Altitude Reporting Facility
EDT Latitude Longitude Course Direction KTS MPH feet Rate Location/Type
10:50PM 33.1915 105.3488 76° East  Level Estimated
10:51PM 33.2157 105.4742 77° East  Level Estimated
10:52PM 33.2398 105.5997 77° East  Level Estimated
10:53PM 33.2637 105.7253 77° East  Level Estimated
10:54PM 33.2876 105.8509 77° East  Level Estimated
10:55PM 33.3112 105.9766 77° East  Level Estimated
10:56PM 33.3348 106.1024 77° East  Level Estimated
10:57PM 33.3582 106.2283 77° East  Level Estimated
10:58PM 33.3815 106.3542 77° East  Level Estimated
10:59PM 33.4047 106.4802 78° East  Level Estimated
11:00PM 33.4278 106.6062 78° East  Level Estimated
11:01PM 33.4507 106.7323 78° East  Level Estimated
11:02PM 33.4735 106.8585 78° East  Level Estimated
11:03PM 33.4962 106.9848 78° East  Level Estimated
11:04PM 33.5187 107.1111 78° East  Level Estimated
11:05PM 33.5411 107.2375 78° East  Level Estimated
11:06PM 33.5634 107.3639 78° East  Level Estimated
11:07PM 33.5856 107.4904 78° East  Level Estimated
11:08PM 33.6076 107.6170 78° East  Level Estimated
11:09PM 33.6295 107.7437 78° East  Level Estimated
11:10PM 33.6513 107.8704 78° East  Level Estimated
11:11PM 33.6729 107.9971 78° East  Level Estimated
11:12PM 33.6944 108.1240 78° East  Level Estimated
11:13PM 33.7158 108.2509 79° East  Level Estimated
11:14PM 33.7371 108.3778 79° East  Level Estimated
11:15PM 33.7582 108.5048 79° East  Level Estimated
11:16PM 33.7792 108.6319 79° East  Level Estimated
11:17PM 33.8000 108.7591 79° East  Level Estimated
11:18PM 33.8208 108.8863 79° East  Level Estimated
11:19PM 33.8414 109.0136 79° East  Level Estimated
11:20PM 33.8618 109.1409 79° East  Level Estimated
11:21PM 33.8822 109.2683 79° East  Level Estimated
11:22PM 33.9024 109.3957 79° East  Level Estimated
11:23PM 33.9225 109.5232 79° East  Level Estimated
11:24PM 33.9424 109.6508 79° East  Level Estimated
11:25PM 33.9622 109.7784 79° East  Level Estimated
11:26PM 33.9819 109.9061 79° East  Level Estimated
11:27PM 34.0014 110.0339 80° East  Level Estimated
11:28PM 34.0209 110.1617 80° East  Level Estimated
11:29PM 34.0401 110.2896 80° East  Level Estimated
11:30PM 34.0593 110.4175 80° East  Level Estimated
11:31PM 34.0783 110.5455 80° East  Level Estimated
11:32PM 34.0972 110.6735 80° East  Level Estimated
11:33PM 34.1160 110.8016 80° East  Level Estimated
11:34PM 34.1346 110.9298 80° East  Level Estimated
11:35PM 34.1531 111.0580 80° East  Level Estimated
11:36PM 34.1714 111.1862 80° East  Level Estimated
11:37PM 34.1896 111.3146 80° East  Level Estimated
11:38PM 34.2077 111.4429 80° East  Level Estimated
11:39PM 34.2257 111.5714 80° East  Level Estimated
11:40PM 34.2435 111.6999 80° East  Level Estimated
11:41PM 34.2612 111.8284 81° East  Level Estimated
11:42PM 34.2787 111.9570 81° East  Level Estimated
11:43PM 34.2962 112.0856 81° East  Level Estimated
11:44PM 34.3134 112.2143 81° East  Level Estimated
11:45PM 34.3306 112.3431 81° East  Level Estimated
11:46PM 34.3476 112.4719 81° East  Level Estimated
11:47PM 34.3645 112.6008 81° East  Level Estimated
11:48PM 34.3812 112.7297 81° East  Level Estimated
11:49PM 34.3978 112.8586 81° East  Level Estimated
11:50PM 34.4143 112.9876 81° East  Level Estimated
11:51PM 34.4306 113.1167 81° East  Level Estimated
11:52PM 34.4468 113.2458 81° East  Level Estimated
11:53PM 34.4629 113.3750 81° East  Level Estimated
11:54PM 34.4788 113.5042 81° East  Level Estimated
11:55PM 34.4946 113.6334 82° East  Level Estimated
11:56PM 34.5103 113.7627 82° East  Level Estimated
11:57PM 34.5197 113.8409 82° East  Level Estimated
11:58PM 34.5197 113.8409 338° Northwest  Level Estimated
11:59PM 34.5197 113.8409 338° Northwest  Level Estimated
12:00AM 34.5197 113.8409 338° Northwest  Level Estimated
12:01AM 34.5197 113.8409 338° Northwest  Level Estimated
12:02AM 34.5197 113.8409 338° Northwest  Level Estimated
12:03AM 34.5197 113.8409 338° Northwest  Level Estimated
12:04AM 34.5197 113.8409 338° Northwest  Level Estimated
12:05AM 34.5197 113.8409 338° Northwest  Level Estimated
12:06AM 34.5197 113.8409 338° Northwest  Level Estimated
12:07AM 34.5197 113.8409 338° Northwest  Level Estimated
12:08AM 34.5197 113.8409 338° Northwest  Level Estimated
12:09AM 34.5197 113.8409 338° Northwest  Level Estimated
12:10AM 34.5197 113.8409 338° Northwest  Level Estimated
12:11AM 34.5197 113.8409 338° Northwest  Level Estimated
12:12AM 34.5197 113.8409 338° Northwest  Level Estimated
12:13AM 34.5197 113.8409 338° Northwest  Level Estimated
12:14AM 34.5197 113.8409 338° Northwest  Level Estimated
12:15AM 34.5197 113.8409 338° Northwest  Level Estimated
12:16AM 34.5197 113.8409 338° Northwest  Level Estimated
12:17AM 34.5197 113.8409 338° Northwest  Level Estimated
12:18AM 34.5197 113.8409 338° Northwest  Level Estimated
12:19AM 34.5197 113.8409 338° Northwest  Level Estimated